Time;durP1;ratioP1;P1;durP2;ratioP2;P2;SDS_P1;SDS_P2;PMS_P1;PMS_P2;Temp;Humidity;BMP_temperature;BMP_pressure;BME280_temperature;BME280_humidity;BME280_pressure;Samples;Min_cycle;Max_cycle;Signal;HPM_P1;HPM_P2
2023/11/02 00:02:31;;;;;;;2.42;0.40;;;9.90;99.90;;;;;;5008864;28;20049;-64
2023/11/02 00:04:57;;;;;;;2.05;0.77;;;9.90;99.90;;;;;;5007338;28;20053;-64
2023/11/02 00:07:23;;;;;;;1.02;0.43;;;9.90;99.90;;;;;;5027246;28;20049;-63
2023/11/02 00:09:55;;;;;;;4.25;0.75;;;9.90;99.90;;;;;;5015524;28;20041;-63
2023/11/02 00:12:27;;;;;;;2.95;0.70;;;9.80;99.90;;;;;;5031045;28;20041;-63
2023/11/02 00:14:55;;;;;;;2.85;0.80;;;9.90;99.90;;;;;;5026569;28;20041;-63
2023/11/02 00:17:35;;;;;;;0.73;0.38;;;9.80;99.90;;;;;;5008010;28;20566;-63
2023/11/02 00:20:10;;;;;;;3.72;0.80;;;9.80;99.90;;;;;;5027080;28;20056;-64
2023/11/02 00:22:41;;;;;;;0.95;0.40;;;9.80;99.90;;;;;;5007537;28;20054;-64
2023/11/02 00:25:07;;;;;;;0.90;0.50;;;9.70;99.90;;;;;;5026319;28;20131;-63
2023/11/02 00:27:33;;;;;;;4.90;0.75;;;9.70;99.90;;;;;;5027263;28;20215;-63
2023/11/02 00:29:59;;;;;;;0.30;0.30;;;9.70;99.90;;;;;;5026853;28;20037;-63
2023/11/02 00:32:25;;;;;;;2.15;0.55;;;9.70;99.90;;;;;;5014240;28;20411;-63
2023/11/02 00:34:52;;;;;;;0.88;0.50;;;9.70;99.90;;;;;;5025210;28;20034;-63
2023/11/02 00:37:17;;;;;;;2.40;0.85;;;9.70;99.90;;;;;;5028377;28;20041;-63
2023/11/02 00:39:45;;;;;;;1.27;0.45;;;9.60;99.90;;;;;;5028654;28;20392;-63
2023/11/02 00:42:13;;;;;;;3.30;0.68;;;9.60;99.90;;;;;;5021723;28;20046;-64
2023/11/02 00:44:39;;;;;;;3.42;0.60;;;9.70;99.90;;;;;;5020737;28;20052;-64
2023/11/02 00:47:06;;;;;;;2.65;0.57;;;9.60;99.90;;;;;;5026039;28;20786;-63
2023/11/02 00:49:32;;;;;;;4.28;0.70;;;9.60;99.90;;;;;;5020146;28;20063;-63
2023/11/02 00:52:00;;;;;;;2.97;0.50;;;9.60;99.90;;;;;;5044799;28;20132;-63
2023/11/02 00:55:07;;;;;;;2.03;0.45;;;9.60;99.90;;;;;;5046369;28;20055;-63
2023/11/02 00:57:39;;;;;;;3.95;0.38;;;9.60;99.90;;;;;;5045073;28;20056;-64
2023/11/02 01:00:06;;;;;;;3.15;1.02;;;9.60;99.90;;;;;;5023031;28;20063;-63
2023/11/02 01:02:38;;;;;;;1.98;0.60;;;9.60;99.90;;;;;;5044045;28;20041;-63
2023/11/02 01:05:07;;;;;;;2.60;0.50;;;9.60;99.90;;;;;;5044492;28;20037;-63
2023/11/02 01:07:33;;;;;;;1.20;0.70;;;9.50;99.90;;;;;;5045792;28;20049;-64
2023/11/02 01:10:04;;;;;;;0.82;0.40;;;9.60;99.90;;;;;;5045165;28;20045;-63
2023/11/02 01:12:37;;;;;;;3.50;0.52;;;9.50;99.90;;;;;;5046505;28;20446;-63
2023/11/02 01:15:11;;;;;;;1.98;0.50;;;9.50;99.90;;;;;;5044735;28;20448;-63
2023/11/02 01:17:39;;;;;;;2.03;0.73;;;9.50;99.90;;;;;;5050351;28;20047;-63
2023/11/02 01:20:14;;;;;;;2.38;0.60;;;9.60;99.90;;;;;;5050866;28;20525;-63
2023/11/02 01:22:50;;;;;;;7.82;0.80;;;9.50;99.90;;;;;;5044730;28;20049;-63
2023/11/02 01:25:15;;;;;;;2.30;0.50;;;9.50;99.90;;;;;;5034757;28;20049;-63
2023/11/02 01:27:42;;;;;;;2.33;0.50;;;9.50;99.90;;;;;;5045045;28;20033;-63
2023/11/02 01:30:43;;;;;;;1.85;0.75;;;9.50;99.90;;;;;;5047098;28;20045;-63
2023/11/02 01:33:47;;;;;;;0.55;0.45;;;9.50;99.90;;;;;;5036645;28;20064;-63
2023/11/02 01:36:24;;;;;;;2.50;0.60;;;9.60;99.90;;;;;;5044682;28;20068;-63
2023/11/02 01:38:58;;;;;;;1.38;0.50;;;9.50;99.90;;;;;;5045291;28;20403;-63
2023/11/02 01:41:34;;;;;;;1.15;0.40;;;9.60;99.90;;;;;;5046197;28;20526;-63
2023/11/02 01:44:10;;;;;;;2.30;0.63;;;9.60;99.90;;;;;;5044624;28;20037;-63
2023/11/02 01:47:02;;;;;;;5.20;0.70;;;9.60;99.90;;;;;;5045780;28;20049;-63
2023/11/02 01:49:55;;;;;;;4.47;0.82;;;9.60;99.90;;;;;;5026463;28;20121;-63
2023/11/02 01:52:51;;;;;;;0.32;0.30;;;9.60;99.90;;;;;;5045303;28;20059;-63
2023/11/02 01:55:26;;;;;;;3.47;0.77;;;9.60;99.90;;;;;;5024926;28;20142;-63
2023/11/02 01:58:03;;;;;;;2.53;0.93;;;9.50;99.90;;;;;;5010123;28;20084;-63
2023/11/02 02:00:54;;;;;;;4.57;0.60;;;9.50;99.90;;;;;;5044342;28;20057;-63
2023/11/02 02:03:30;;;;;;;1.75;0.57;;;9.50;99.90;;;;;;5037453;28;20442;-63
2023/11/02 02:06:09;;;;;;;3.50;0.75;;;9.40;99.90;;;;;;5049315;28;20136;-63
2023/11/02 02:09:07;;;;;;;2.58;0.50;;;9.40;99.90;;;;;;5045308;28;20044;-63
2023/11/02 02:11:52;;;;;;;2.80;1.33;;;9.40;99.90;;;;;;5034789;28;20083;-63
2023/11/02 02:14:30;;;;;;;4.53;1.05;;;9.30;99.90;;;;;;5025449;28;20414;-64
2023/11/02 02:17:22;;;;;;;1.35;0.50;;;9.30;99.90;;;;;;5045646;28;20118;-63
2023/11/02 02:20:09;;;;;;;6.13;0.90;;;9.30;99.90;;;;;;5032754;28;20094;-63
2023/11/02 02:23:16;;;;;;;0.82;0.52;;;9.30;99.90;;;;;;5033954;28;20056;-63
2023/11/02 02:26:18;;;;;;;7.50;1.35;;;9.30;99.90;;;;;;5006486;28;20061;-63
2023/11/02 02:29:08;;;;;;;1.52;0.60;;;9.20;99.90;;;;;;5006174;28;20142;-63
2023/11/02 02:31:34;;;;;;;;;;;9.20;99.90;;;;;;5041841;28;20419;-63
2023/11/02 02:34:18;;;;;;;1.10;0.60;;;9.20;99.90;;;;;;5052585;28;19921;-63
2023/11/02 02:37:20;;;;;;;2.35;0.75;;;9.10;99.90;;;;;;5034318;28;20123;-63
2023/11/02 02:39:50;;;;;;;2.42;0.55;;;9.10;99.90;;;;;;5032410;28;20095;-63
2023/11/02 02:42:19;;;;;;;3.40;0.95;;;9.10;99.90;;;;;;5048189;28;20095;-63
2023/11/02 02:44:47;;;;;;;1.95;0.77;;;9.00;99.90;;;;;;5025833;28;20056;-63
2023/11/02 02:47:16;;;;;;;1.23;0.60;;;9.00;99.90;;;;;;5048996;28;20049;-63
2023/11/02 02:49:49;;;;;;;6.03;0.70;;;9.00;99.90;;;;;;5033983;28;20057;-63
2023/11/02 02:52:19;;;;;;;1.75;0.47;;;9.00;99.90;;;;;;5028931;28;20080;-63
2023/11/02 02:54:48;;;;;;;;;;;9.00;99.90;;;;;;5028437;28;20053;-64
2023/11/02 02:57:17;;;;;;;3.40;0.60;;;9.00;99.90;;;;;;5027379;28;19971;-64
2023/11/02 02:59:49;;;;;;;2.90;0.70;;;8.90;99.90;;;;;;5010417;28;20046;-63
2023/11/02 03:02:17;;;;;;;1.20;0.60;;;8.90;99.90;;;;;;5027947;28;20280;-64
2023/11/02 03:04:45;;;;;;;1.90;0.65;;;8.90;99.90;;;;;;5028315;28;20045;-64
2023/11/02 03:07:15;;;;;;;0.85;0.50;;;8.90;99.90;;;;;;5027521;28;20064;-64
2023/11/02 03:09:44;;;;;;;2.83;0.40;;;9.00;99.90;;;;;;5026585;28;20049;-63
2023/11/02 03:12:12;;;;;;;4.33;0.80;;;9.00;99.90;;;;;;5028624;28;20512;-63
2023/11/02 03:14:42;;;;;;;3.38;0.55;;;9.00;99.90;;;;;;4994995;28;20299;-64
2023/11/02 03:17:38;;;;;;;1.52;0.60;;;9.00;99.90;;;;;;5028437;28;20476;-63
2023/11/02 03:20:10;;;;;;;2.20;0.60;;;9.00;99.90;;;;;;5022505;28;20100;-63
2023/11/02 03:22:37;;;;;;;0.80;0.52;;;8.90;99.90;;;;;;5023143;28;20156;-63
2023/11/02 03:25:16;;;;;;;2.72;0.50;;;9.00;99.90;;;;;;5032913;28;20137;-63
2023/11/02 03:28:20;;;;;;;0.88;0.40;;;9.00;99.90;;;;;;5026347;28;20041;-63
2023/11/02 03:30:56;;;;;;;1.85;0.57;;;9.00;99.90;;;;;;5026285;28;20052;-64
2023/11/02 03:33:34;;;;;;;0.77;0.25;;;9.00;99.90;;;;;;4995624;28;20379;-63
2023/11/02 03:36:08;;;;;;;2.03;0.80;;;9.00;99.90;;;;;;5014182;28;20045;-63
2023/11/02 03:39:37;;;;;;;0.65;0.25;;;9.00;99.90;;;;;;4996620;28;20159;-63
2023/11/02 03:42:24;;;;;;;2.33;0.28;;;9.00;99.90;;;;;;4965752;28;20038;-63
2023/11/02 03:45:29;;;;;;;2.03;0.60;;;9.00;99.90;;;;;;4966000;28;20047;-64
2023/11/02 03:48:25;;;;;;;0.77;0.52;;;9.00;99.90;;;;;;4939495;28;21013;-64
2023/11/02 03:51:25;;;;;;;4.00;0.57;;;9.10;99.90;;;;;;4965852;28;20476;-63
2023/11/02 03:54:08;;;;;;;0.13;0.13;;;9.10;99.90;;;;;;4988964;28;20064;-64
2023/11/02 03:56:52;;;;;;;1.95;0.50;;;9.10;99.90;;;;;;5009337;28;20253;-64
2023/11/02 03:59:28;;;;;;;8.32;0.68;;;9.10;99.90;;;;;;5026707;28;20057;-63
2023/11/02 04:02:05;;;;;;;4.00;0.40;;;9.10;99.90;;;;;;5025697;28;20136;-63
2023/11/02 04:04:45;;;;;;;2.78;0.45;;;9.20;99.90;;;;;;5026543;28;20060;-64
2023/11/02 04:07:13;;;;;;;0.35;0.30;;;9.10;99.90;;;;;;5038106;28;20045;-63
2023/11/02 04:09:49;;;;;;;0.63;0.40;;;9.20;99.90;;;;;;5031419;28;20051;-63
2023/11/02 04:12:32;;;;;;;3.60;0.50;;;9.20;99.90;;;;;;5014204;28;20091;-63
2023/11/02 04:15:02;;;;;;;4.00;0.55;;;9.20;99.90;;;;;;5025306;28;20506;-63
2023/11/02 04:17:28;;;;;;;0.70;0.40;;;9.20;99.90;;;;;;5026639;28;20146;-64
2023/11/02 04:19:55;;;;;;;0.20;0.20;;;9.20;99.90;;;;;;5039555;28;20053;-63
2023/11/02 04:22:21;;;;;;;1.95;0.30;;;9.20;99.90;;;;;;5009261;28;20088;-64
2023/11/02 04:24:46;;;;;;;1.38;0.30;;;9.20;99.90;;;;;;5025643;28;20044;-63
2023/11/02 04:27:12;;;;;;;1.05;0.35;;;9.20;99.90;;;;;;5008596;28;20068;-63
2023/11/02 04:29:38;;;;;;;1.65;0.35;;;9.20;99.90;;;;;;5007819;28;20484;-64
2023/11/02 04:32:04;;;;;;;0.93;0.30;;;9.20;99.90;;;;;;5033350;28;20119;-64
2023/11/02 04:34:31;;;;;;;4.07;0.40;;;9.10;99.90;;;;;;5026553;28;20042;-63
2023/11/02 04:36:58;;;;;;;7.90;1.20;;;9.10;99.90;;;;;;5023937;28;20124;-63
2023/11/02 04:39:23;;;;;;;3.17;0.40;;;9.20;99.90;;;;;;5026776;28;20064;-63
2023/11/02 04:41:49;;;;;;;1.23;0.63;;;9.10;99.90;;;;;;5031777;28;20483;-63
2023/11/02 04:44:15;;;;;;;3.13;0.55;;;9.20;99.90;;;;;;5026713;28;20428;-64
2023/11/02 04:46:41;;;;;;;4.93;0.55;;;9.20;99.90;;;;;;4991065;28;20052;-63
2023/11/02 04:49:08;;;;;;;0.30;0.30;;;9.20;99.90;;;;;;5025764;28;20064;-64
2023/11/02 04:51:35;;;;;;;2.88;0.30;;;9.20;99.90;;;;;;5031098;28;20041;-63
2023/11/02 04:54:00;;;;;;;0.40;0.30;;;9.30;99.90;;;;;;5007670;28;20041;-64
2023/11/02 04:56:26;;;;;;;0.85;0.50;;;9.30;99.90;;;;;;5026448;28;20048;-64
2023/11/02 04:58:52;;;;;;;0.80;0.20;;;9.30;99.90;;;;;;5024513;28;20073;-63
2023/11/02 05:01:18;;;;;;;2.08;0.30;;;9.40;99.90;;;;;;5008092;28;20655;-63
2023/11/02 05:03:43;;;;;;;12.30;0.50;;;9.40;99.90;;;;;;5026484;28;20655;-64
2023/11/02 05:06:10;;;;;;;2.70;0.40;;;9.40;99.90;;;;;;5007873;28;20067;-63
2023/11/02 05:08:35;;;;;;;2.08;0.32;;;9.40;99.90;;;;;;5025356;28;20120;-63
2023/11/02 05:11:01;;;;;;;1.40;0.30;;;9.50;99.90;;;;;;5025489;28;20441;-64
2023/11/02 05:13:27;;;;;;;1.55;0.40;;;9.50;99.90;;;;;;5030696;28;20038;-63
2023/11/02 05:15:57;;;;;;;1.00;0.60;;;9.50;99.90;;;;;;5017552;28;20498;-64
2023/11/02 05:18:23;;;;;;;1.73;0.38;;;9.60;99.90;;;;;;5013139;28;20530;-64
2023/11/02 05:20:56;;;;;;;2.63;0.40;;;9.60;99.90;;;;;;5029604;28;20381;-63
2023/11/02 05:23:22;;;;;;;2.30;0.40;;;9.60;99.90;;;;;;5037569;28;20428;-64
2023/11/02 05:25:48;;;;;;;1.65;0.40;;;9.60;99.90;;;;;;5027045;28;20050;-63
2023/11/02 05:28:14;;;;;;;1.27;0.30;;;9.60;99.90;;;;;;4993430;28;20072;-63
2023/11/02 05:30:40;;;;;;;0.20;0.20;;;9.60;99.90;;;;;;5025603;28;20140;-63
2023/11/02 05:33:06;;;;;;;0.40;0.30;;;9.70;99.90;;;;;;5036183;28;20465;-63
2023/11/02 05:35:32;;;;;;;0.57;0.30;;;9.70;99.90;;;;;;5027054;28;20107;-64
2023/11/02 05:37:58;;;;;;;5.35;0.93;;;9.70;99.90;;;;;;5024182;28;20503;-63
2023/11/02 05:40:24;;;;;;;1.08;0.40;;;9.70;99.90;;;;;;5007868;28;20088;-64
2023/11/02 05:42:50;;;;;;;1.80;0.20;;;9.70;99.90;;;;;;5034285;28;20048;-63
2023/11/02 05:45:16;;;;;;;6.25;0.45;;;9.70;99.90;;;;;;5025046;28;20029;-63
2023/11/02 05:47:41;;;;;;;1.55;0.43;;;9.70;99.90;;;;;;4990947;28;20045;-63
2023/11/02 05:50:07;;;;;;;2.58;0.40;;;9.70;99.90;;;;;;5024907;28;20049;-63
2023/11/02 05:52:34;;;;;;;0.68;0.43;;;9.80;99.90;;;;;;5029930;28;20136;-64
2023/11/02 05:54:59;;;;;;;1.10;0.32;;;9.80;99.90;;;;;;5029701;28;20116;-63
2023/11/02 05:57:25;;;;;;;1.42;0.43;;;9.80;99.90;;;;;;5029354;28;20153;-63
2023/11/02 05:59:51;;;;;;;0.93;0.20;;;9.80;99.90;;;;;;5010677;28;20770;-63
2023/11/02 06:02:18;;;;;;;5.88;0.50;;;9.80;99.90;;;;;;5010932;28;20041;-64
2023/11/02 06:04:44;;;;;;;2.97;0.50;;;9.80;99.90;;;;;;5033506;28;20591;-63
2023/11/02 06:07:10;;;;;;;5.78;0.45;;;9.80;99.90;;;;;;5028455;28;20041;-63
2023/11/02 06:09:36;;;;;;;0.28;0.22;;;9.80;99.90;;;;;;4994941;28;20168;-63
2023/11/02 06:12:03;;;;;;;0.20;0.20;;;9.80;99.90;;;;;;4993668;28;20099;-63
2023/11/02 06:14:29;;;;;;;2.35;0.40;;;9.90;99.90;;;;;;5030055;28;20033;-63
2023/11/02 06:16:54;;;;;;;0.35;0.32;;;9.80;99.90;;;;;;5009776;28;20626;-63
2023/11/02 06:19:20;;;;;;;1.20;0.47;;;9.90;99.90;;;;;;5028886;28;20054;-64
2023/11/02 06:21:47;;;;;;;0.88;0.38;;;9.90;99.90;;;;;;5028120;28;20046;-63
2023/11/02 06:24:13;;;;;;;1.48;1.02;;;9.90;99.90;;;;;;5029362;28;20189;-63
2023/11/02 06:26:40;;;;;;;1.17;0.30;;;9.90;99.90;;;;;;5028691;28;20049;-63
2023/11/02 06:29:06;;;;;;;0.30;0.30;;;10.00;99.90;;;;;;5009483;28;20500;-63
2023/11/02 06:31:31;;;;;;;3.20;0.50;;;10.00;99.90;;;;;;5028520;28;20044;-63
2023/11/02 06:33:57;;;;;;;0.90;0.30;;;10.00;99.90;;;;;;5027313;28;20515;-64
2023/11/02 06:36:23;;;;;;;0.93;0.30;;;10.00;99.90;;;;;;5041525;28;20051;-63
2023/11/02 06:38:48;;;;;;;1.55;0.60;;;10.00;99.90;;;;;;5009632;28;20435;-63
2023/11/02 06:41:14;;;;;;;0.85;0.30;;;10.10;99.90;;;;;;5028071;28;20049;-64
2023/11/02 06:43:43;;;;;;;3.88;0.47;;;10.10;99.90;;;;;;5028024;28;20076;-63
2023/11/02 06:46:09;;;;;;;1.25;0.40;;;10.10;99.90;;;;;;5021602;28;20278;-63
2023/11/02 06:48:34;;;;;;;1.13;0.52;;;10.10;99.90;;;;;;5015241;28;20387;-63
2023/11/02 06:51:00;;;;;;;4.38;0.35;;;10.10;99.90;;;;;;5046967;28;20048;-63
2023/11/02 06:53:26;;;;;;;2.30;0.32;;;10.20;99.90;;;;;;5030174;28;20045;-63
2023/11/02 06:55:52;;;;;;;0.65;0.32;;;10.20;99.90;;;;;;5051572;28;20051;-63
2023/11/02 06:58:17;;;;;;;2.00;0.40;;;10.20;99.90;;;;;;5052343;28;20419;-63
2023/11/02 07:00:44;;;;;;;0.85;0.30;;;10.30;99.90;;;;;;5030063;28;20517;-63
2023/11/02 07:03:11;;;;;;;0.43;0.30;;;10.30;99.90;;;;;;5046461;28;20052;-63
2023/11/02 07:05:36;;;;;;;0.77;0.28;;;10.30;99.90;;;;;;5048624;28;20126;-63
2023/11/02 07:08:02;;;;;;;0.90;0.20;;;10.30;99.90;;;;;;5050881;28;20080;-63
2023/11/02 07:10:28;;;;;;;0.30;0.30;;;10.30;99.90;;;;;;5041284;28;20041;-64
2023/11/02 07:12:54;;;;;;;0.75;0.38;;;10.30;99.90;;;;;;5046088;28;20112;-63
2023/11/02 07:15:20;;;;;;;1.00;0.40;;;10.30;99.90;;;;;;5030069;28;20666;-64
2023/11/02 07:17:46;;;;;;;2.15;0.40;;;10.30;99.90;;;;;;5031100;28;20426;-63
2023/11/02 07:20:12;;;;;;;0.40;0.35;;;10.30;99.90;;;;;;5022053;28;20053;-64
2023/11/02 07:22:38;;;;;;;0.30;0.30;;;10.30;99.90;;;;;;5024011;28;20053;-64
2023/11/02 07:25:04;;;;;;;0.60;0.50;;;10.30;99.90;;;;;;5034361;28;20138;-64
2023/11/02 07:27:30;;;;;;;5.70;0.63;;;10.20;99.90;;;;;;5047613;28;20056;-63
2023/11/02 07:29:56;;;;;;;0.88;0.30;;;10.20;99.90;;;;;;5046121;28;20048;-64
2023/11/02 07:32:22;;;;;;;0.77;0.22;;;10.20;99.90;;;;;;5039103;28;20048;-63
2023/11/02 07:34:48;;;;;;;1.65;0.55;;;10.20;99.90;;;;;;5050434;28;20052;-64
2023/11/02 07:37:13;;;;;;;0.10;0.10;;;10.30;99.90;;;;;;5057124;28;20044;-63
2023/11/02 07:39:39;;;;;;;5.03;0.40;;;10.20;99.90;;;;;;5041156;28;20041;-64
2023/11/02 07:42:05;;;;;;;1.42;0.50;;;10.30;99.90;;;;;;5055361;28;20048;-63
2023/11/02 07:44:31;;;;;;;0.68;0.25;;;10.30;99.90;;;;;;4994056;28;20045;-64
2023/11/02 07:46:57;;;;;;;4.97;0.40;;;10.30;99.90;;;;;;5028316;28;20128;-64
2023/11/02 07:49:23;;;;;;;1.55;0.57;;;10.40;99.90;;;;;;5036437;28;20133;-64
2023/11/02 07:51:48;;;;;;;3.65;0.82;;;10.50;99.90;;;;;;5008296;28;20127;-64
2023/11/02 07:54:14;;;;;;;1.42;0.60;;;10.50;99.90;;;;;;5015224;28;20382;-63
2023/11/02 07:56:41;;;;;;;2.60;0.30;;;10.50;99.90;;;;;;5027642;28;20041;-63
2023/11/02 07:59:07;;;;;;;2.50;0.32;;;10.60;99.90;;;;;;5045554;28;20057;-64
2023/11/02 08:01:33;;;;;;;6.95;0.40;;;10.60;99.90;;;;;;5014744;28;20084;-64
2023/11/02 08:03:59;;;;;;;0.80;0.38;;;10.60;99.90;;;;;;5011183;28;20475;-64
2023/11/02 08:06:24;;;;;;;0.55;0.28;;;10.50;99.90;;;;;;5007188;28;20046;-64
2023/11/02 08:08:51;;;;;;;1.25;0.20;;;10.50;99.90;;;;;;5024470;28;20121;-64
2023/11/02 08:11:17;;;;;;;0.93;0.38;;;10.50;99.90;;;;;;5027150;28;20053;-64
2023/11/02 08:13:42;;;;;;;0.90;0.20;;;10.50;99.90;;;;;;5025984;28;20049;-64
2023/11/02 08:16:08;;;;;;;1.95;0.30;;;10.50;99.90;;;;;;5027078;28;20587;-65
2023/11/02 08:18:34;;;;;;;0.05;0.05;;;10.50;99.90;;;;;;5008167;28;20120;-64
2023/11/02 08:21:06;;;;;;;0.98;0.20;;;10.50;99.90;;;;;;5026321;28;20113;-64
2023/11/02 08:23:32;;;;;;;0.52;0.15;;;10.60;99.90;;;;;;5008538;28;20053;-65
2023/11/02 08:25:57;;;;;;;0.60;0.28;;;10.50;99.90;;;;;;5038774;28;20045;-65
2023/11/02 08:28:23;;;;;;;0.00;0.00;;;10.50;99.90;;;;;;5017265;28;20585;-65
2023/11/02 08:30:49;;;;;;;0.65;0.25;;;10.50;99.90;;;;;;5025459;28;20087;-65
2023/11/02 08:33:15;;;;;;;0.30;0.30;;;10.40;99.90;;;;;;5024749;28;20057;-66
2023/11/02 08:35:40;;;;;;;3.00;0.30;;;10.40;99.90;;;;;;5023998;28;20491;-66
2023/11/02 08:38:06;;;;;;;0.40;0.15;;;10.40;99.90;;;;;;5020800;28;20148;-66
2023/11/02 08:40:32;;;;;;;0.63;0.20;;;10.40;99.90;;;;;;5033251;28;20123;-66
2023/11/02 08:42:58;;;;;;;2.30;0.30;;;10.40;99.90;;;;;;5028078;28;20119;-66
2023/11/02 08:45:24;;;;;;;2.72;0.45;;;10.40;99.90;;;;;;5044499;28;20049;-65
2023/11/02 08:47:49;;;;;;;0.20;0.20;;;10.40;99.90;;;;;;5044665;28;20071;-66
2023/11/02 08:50:15;;;;;;;0.32;0.25;;;10.40;99.90;;;;;;5007775;28;20089;-66
2023/11/02 08:52:41;;;;;;;1.13;0.38;;;10.30;99.90;;;;;;5007804;28;20045;-66
2023/11/02 08:55:08;;;;;;;0.35;0.32;;;10.40;99.90;;;;;;5011953;28;20049;-66
2023/11/02 08:57:35;;;;;;;4.65;0.57;;;10.40;99.90;;;;;;5013845;28;20053;-65
2023/11/02 09:00:01;;;;;;;0.10;0.10;;;10.40;99.90;;;;;;5042818;28;20088;-65
2023/11/02 09:02:26;;;;;;;0.85;0.32;;;10.40;99.90;;;;;;5027976;28;20036;-65
2023/11/02 09:04:53;;;;;;;0.45;0.20;;;10.50;99.90;;;;;;5031141;28;20033;-65
2023/11/02 09:07:19;;;;;;;0.70;0.55;;;10.60;99.90;;;;;;5025563;28;20573;-65
2023/11/02 09:09:45;;;;;;;0.40;0.25;;;10.70;99.90;;;;;;5007421;28;20139;-65
2023/11/02 09:12:11;;;;;;;0.45;0.38;;;10.80;99.90;;;;;;5025406;28;20142;-65
2023/11/02 09:14:37;;;;;;;0.20;0.10;;;10.90;99.90;;;;;;5026858;28;20215;-65
2023/11/02 09:17:04;;;;;;;0.68;0.32;;;10.90;99.90;;;;;;5007788;28;20048;-65
2023/11/02 09:19:29;;;;;;;0.20;0.15;;;10.90;99.90;;;;;;5007605;28;20052;-66
2023/11/02 09:21:55;;;;;;;6.70;0.20;;;11.00;99.90;;;;;;5025049;28;20050;-65
2023/11/02 09:24:21;;;;;;;1.55;0.30;;;11.00;99.90;;;;;;5025579;28;20488;-65
2023/11/02 09:26:47;;;;;;;2.17;0.60;;;11.00;99.90;;;;;;4990802;28;20443;-65
2023/11/02 09:29:14;;;;;;;0.10;0.10;;;11.20;99.90;;;;;;5010092;28;20053;-65
2023/11/02 09:31:41;;;;;;;0.20;0.20;;;11.20;99.90;;;;;;5015966;28;20058;-65
2023/11/02 09:34:10;;;;;;;1.90;0.13;;;11.30;99.90;;;;;;4994308;28;20045;-65
2023/11/02 09:36:39;;;;;;;0.00;0.00;;;11.40;99.90;;;;;;5011055;28;20057;-65
2023/11/02 09:39:07;;;;;;;3.83;0.50;;;11.70;99.90;;;;;;5041451;28;20045;-65
2023/11/02 09:41:35;;;;;;;0.98;0.40;;;11.80;99.90;;;;;;5005833;28;20442;-64
2023/11/02 09:44:03;;;;;;;0.88;0.47;;;11.90;99.90;;;;;;5025385;28;20143;-65
2023/11/02 09:46:29;;;;;;;5.20;0.45;;;12.10;99.90;;;;;;5031113;28;20041;-64
2023/11/02 09:48:55;;;;;;;3.03;0.40;;;12.20;99.90;;;;;;5011926;28;20073;-65
2023/11/02 09:51:24;;;;;;;0.20;0.10;;;12.30;99.90;;;;;;5028324;28;20492;-64
2023/11/02 09:53:51;;;;;;;0.20;0.15;;;12.30;99.90;;;;;;4988356;28;20057;-64
2023/11/02 09:56:19;;;;;;;0.50;0.10;;;12.40;99.90;;;;;;5027306;28;20479;-64
2023/11/02 09:58:46;;;;;;;0.10;0.10;;;12.30;99.90;;;;;;5016066;28;20487;-64
2023/11/02 10:01:13;;;;;;;0.40;0.30;;;12.40;99.90;;;;;;4994211;28;20574;-64
2023/11/02 10:03:39;;;;;;;0.20;0.20;;;12.30;99.90;;;;;;5028602;28;20041;-64
2023/11/02 10:06:07;;;;;;;2.72;0.40;;;12.30;99.90;;;;;;5003886;28;20038;-64
2023/11/02 10:08:33;;;;;;;0.55;0.10;;;12.20;99.90;;;;;;5026793;28;20175;-64
2023/11/02 10:11:18;;;;;;;0.45;0.20;;;12.30;99.90;;;;;;5021835;28;20552;-64
2023/11/02 10:13:50;;;;;;;1.58;0.47;;;12.40;99.90;;;;;;5031280;28;20054;-64
2023/11/02 10:16:25;;;;;;;1.00;0.28;;;12.40;99.90;;;;;;5010101;28;20041;-64
2023/11/02 10:18:52;;;;;;;0.22;0.10;;;12.40;99.90;;;;;;5028348;28;20041;-64
2023/11/02 10:21:19;;;;;;;1.27;0.50;;;12.40;99.90;;;;;;5011453;28;20602;-64
2023/11/02 10:23:55;;;;;;;0.30;0.20;;;12.40;99.90;;;;;;5028355;28;20628;-64
2023/11/02 10:26:21;;;;;;;1.65;0.10;;;12.40;99.90;;;;;;5009752;28;20034;-64
2023/11/02 10:28:47;;;;;;;1.45;0.20;;;12.50;99.90;;;;;;5032240;28;20045;-64
2023/11/02 10:31:23;;;;;;;0.65;0.30;;;12.50;99.90;;;;;;5034331;28;20181;-64
2023/11/02 10:33:50;;;;;;;0.30;0.10;;;12.50;99.90;;;;;;5015554;28;20057;-63
2023/11/02 10:36:17;;;;;;;0.20;0.20;;;12.50;99.90;;;;;;5032895;28;20049;-64
2023/11/02 10:38:46;;;;;;;0.40;0.10;;;12.60;99.90;;;;;;5029373;28;20412;-64
2023/11/02 10:41:16;;;;;;;1.30;0.30;;;12.60;99.90;;;;;;5023943;28;20597;-64
2023/11/02 10:43:45;;;;;;;0.10;0.10;;;12.60;99.90;;;;;;5025131;28;20075;-63
2023/11/02 10:46:12;;;;;;;0.52;0.20;;;12.70;99.90;;;;;;5046169;28;20121;-63
2023/11/02 10:48:41;;;;;;;0.60;0.15;;;12.70;99.90;;;;;;5023839;28;20371;-64
2023/11/02 10:51:15;;;;;;;0.65;0.35;;;12.70;99.90;;;;;;5030320;28;20045;-64
2023/11/02 10:54:05;;;;;;;2.83;0.50;;;12.70;99.90;;;;;;5027073;28;20030;-63
2023/11/02 10:56:40;;;;;;;;;;;12.80;99.90;;;;;;5013733;28;20607;-64
2023/11/02 10:59:07;;;;;;;1.60;0.20;;;12.80;99.90;;;;;;5028223;28;20375;-63
2023/11/02 11:01:34;;;;;;;0.10;0.10;;;12.90;99.90;;;;;;5005374;28;20048;-64
2023/11/02 11:04:01;;;;;;;0.03;0.03;;;12.90;99.90;;;;;;5010017;28;20082;-64
2023/11/02 11:06:28;;;;;;;1.80;0.22;;;13.00;99.90;;;;;;5000384;28;20562;-64
2023/11/02 11:08:59;;;;;;;2.65;0.40;;;13.10;99.90;;;;;;5026049;28;20524;-63
2023/11/02 11:11:27;;;;;;;0.25;0.17;;;13.20;99.90;;;;;;5018868;28;20096;-63
2023/11/02 11:13:54;;;;;;;0.65;0.20;;;13.20;99.90;;;;;;5027546;28;20542;-63
2023/11/02 11:16:22;;;;;;;0.75;0.20;;;13.30;99.90;;;;;;5030197;28;20056;-63
2023/11/02 11:18:50;;;;;;;1.17;0.10;;;13.30;99.90;;;;;;5035143;28;20096;-63
2023/11/02 11:21:18;;;;;;;0.52;0.20;;;13.40;99.90;;;;;;5025146;28;20049;-63
2023/11/02 11:23:45;;;;;;;0.55;0.20;;;13.40;99.90;;;;;;5026668;28;20105;-63
2023/11/02 11:26:11;;;;;;;0.35;0.30;;;13.50;99.90;;;;;;5027065;28;20052;-63
2023/11/02 11:28:38;;;;;;;0.25;0.13;;;13.60;99.90;;;;;;5007271;28;20076;-63
2023/11/02 11:31:05;;;;;;;0.30;0.22;;;13.60;99.90;;;;;;4984232;28;20106;-63
2023/11/02 11:33:49;;;;;;;0.00;0.00;;;13.60;99.90;;;;;;5033852;28;20038;-63
2023/11/02 11:36:32;;;;;;;0.10;0.10;;;13.60;99.90;;;;;;5018152;28;20557;-63
2023/11/02 11:38:58;;;;;;;0.22;0.13;;;13.60;99.90;;;;;;5018433;28;20092;-63
2023/11/02 11:41:44;;;;;;;1.05;0.40;;;13.60;99.90;;;;;;5008937;28;20049;-63
2023/11/02 11:44:28;;;;;;;0.17;0.10;;;13.70;99.90;;;;;;5027417;28;20058;-63
2023/11/02 11:46:56;;;;;;;0.10;0.10;;;13.80;99.90;;;;;;5026360;28;20051;-63
2023/11/02 11:49:36;;;;;;;0.10;0.10;;;13.90;99.90;;;;;;5025713;28;20126;-63
2023/11/02 11:52:25;;;;;;;0.98;0.75;;;14.00;99.90;;;;;;5027960;28;20488;-63
2023/11/02 11:54:51;;;;;;;0.60;0.13;;;14.10;99.90;;;;;;5028036;28;20038;-63
2023/11/02 11:57:57;;;;;;;1.38;0.17;;;14.10;99.90;;;;;;4996906;28;20345;-63
2023/11/02 12:00:24;;;;;;;1.10;0.40;;;14.00;99.90;;;;;;5014546;28;20033;-63
2023/11/02 12:02:57;;;;;;;0.60;0.10;;;13.90;99.90;;;;;;5009920;28;20185;-63
2023/11/02 12:05:41;;;;;;;0.20;0.20;;;13.80;99.90;;;;;;4999861;28;20077;-62
2023/11/02 12:08:07;;;;;;;0.90;0.10;;;13.80;99.90;;;;;;5019527;28;20065;-63
2023/11/02 12:10:46;;;;;;;0.10;0.10;;;13.80;99.90;;;;;;5005177;28;20041;-63
2023/11/02 12:13:27;;;;;;;0.22;0.13;;;13.70;99.90;;;;;;5080521;27;20456;-62
2023/11/02 12:16:01;;;;;;;1.17;0.40;;;13.70;99.90;;;;;;5061789;28;20570;-62
2023/11/02 12:18:36;;;;;;;0.30;0.15;;;13.80;99.90;;;;;;5060420;28;20048;-62
2023/11/02 12:21:11;;;;;;;0.00;0.00;;;13.80;99.90;;;;;;5061292;28;20056;-62
2023/11/02 12:23:38;;;;;;;1.38;0.40;;;13.90;99.90;;;;;;5074264;28;20048;-62
2023/11/02 12:26:06;;;;;;;1.67;0.40;;;13.90;99.90;;;;;;5058628;28;20422;-62
2023/11/02 12:28:52;;;;;;;1.35;0.30;;;13.90;99.90;;;;;;5057875;28;20049;-62
2023/11/02 12:31:44;;;;;;;1.63;0.47;;;13.90;99.90;;;;;;5055833;28;20392;-63
2023/11/02 12:34:13;;;;;;;0.08;0.08;;;13.80;99.90;;;;;;5055038;28;20092;-62
2023/11/02 12:36:40;;;;;;;0.00;0.00;;;13.90;99.90;;;;;;5048059;28;20041;-62
2023/11/02 12:39:11;;;;;;;0.47;0.10;;;13.90;99.90;;;;;;5038047;28;20095;-62
2023/11/02 12:41:37;;;;;;;1.35;0.40;;;13.90;99.90;;;;;;5054334;28;20041;-63
2023/11/02 12:44:14;;;;;;;0.20;0.20;;;13.80;99.90;;;;;;5054617;28;20029;-63
2023/11/02 12:46:41;;;;;;;0.45;0.30;;;13.70;99.90;;;;;;5050167;28;20048;-63
2023/11/02 12:49:19;;;;;;;0.73;0.20;;;13.60;99.90;;;;;;5054477;28;20065;-63
2023/11/02 12:52:01;;;;;;;0.30;0.10;;;13.50;99.90;;;;;;5060158;28;20090;-63
2023/11/02 12:54:31;;;;;;;4.75;0.30;;;13.60;99.90;;;;;;5060908;28;20498;-62
2023/11/02 12:57:07;;;;;;;1.00;0.35;;;13.60;99.90;;;;;;5048120;28;20037;-63
2023/11/02 12:59:37;;;;;;;1.42;0.40;;;13.60;99.90;;;;;;5057010;28;20407;-62
2023/11/02 13:02:05;;;;;;;0.35;0.20;;;13.70;99.90;;;;;;5047968;28;20045;-63
2023/11/02 13:04:54;;;;;;;0.80;0.28;;;13.80;99.90;;;;;;5057362;28;20565;-62
2023/11/02 13:07:21;;;;;;;0.67;0.67;;;14.10;99.90;;;;;;5057883;28;20106;-63
2023/11/02 13:10:01;;;;;;;1.15;0.30;;;14.20;99.90;;;;;;5057157;28;20047;-63
2023/11/02 13:12:27;;;;;;;0.10;0.10;;;14.30;99.90;;;;;;5062095;28;20061;-63
2023/11/02 13:14:53;;;;;;;1.00;0.20;;;14.40;99.90;;;;;;5061958;28;20056;-63